Stoverdale, Pennsylvania
Current Conditions -  °F | °C
As of 10:56 PM on Saturday 25 Oct 2014 (Local Time) from KMDT Reporting Station
Scattered Clouds Scattered Clouds  
Wind Chill: 61°   Ceiling: Unl
Heat Index: 61°   Visibility: 10mi
Dew Point: 48°   Wind: 9mph
Humidity: 62%   Direction: 210°SSW
Pressure: 29.63"   Gusts: NA
Location:  40.2988°N, 76.709°W
Report Text: KMDT 260256Z 21008KT 10SM SCT035 SCT080 16/09 A2963 RMK AO2 SLP033 T01610089 56016 $
Loading
Personal Weather Stations






























Interactive Weather Map
Tropical Storm Tracking
New forecast layout! Learn more

10-Day Weather Forecast

Advertisements
Track Severe Weather on mobile